Time;durP1;ratioP1;P1;durP2;ratioP2;P2;SDS_P1;SDS_P2;PMS_P1;PMS_P2;Temp;Humidity;BMP_temperature;BMP_pressure;BME280_temperature;BME280_humidity;BME280_pressure;Samples;Min_cycle;Max_cycle;Signal;HPM_P1;HPM_P2
2022/05/28 00:00:30;;;;;;;4.25;1.75;;;;;;;8.96;100.00;100481.66;5016677;28;20037;-81
2022/05/28 00:02:57;;;;;;;4.82;1.77;;;;;;;8.93;100.00;100476.47;5009705;28;20041;-80
2022/05/28 00:05:24;;;;;;;5.40;2.10;;;;;;;9.04;100.00;100478.91;5031569;28;20045;-80
2022/05/28 00:07:51;;;;;;;3.58;1.63;;;;;;;9.03;100.00;100470.13;5016029;28;20383;-80
2022/05/28 00:10:19;;;;;;;3.22;2.00;;;;;;;9.02;100.00;100476.28;4998740;28;20037;-80
2022/05/28 00:12:46;;;;;;;6.03;1.77;;;;;;;9.00;100.00;100474.59;5033118;28;20033;-80
2022/05/28 00:15:13;;;;;;;3.70;1.70;;;;;;;8.98;100.00;100476.34;5014973;28;20037;-80
2022/05/28 00:17:40;;;;;;;4.60;1.92;;;;;;;8.95;100.00;100465.88;5015336;28;20502;-80
2022/05/28 00:20:07;;;;;;;5.38;1.95;;;;;;;8.91;100.00;100478.25;5023087;28;20425;-81
2022/05/28 00:22:39;;;;;;;3.90;1.60;;;;;;;8.85;100.00;100470.44;5009431;28;20048;-81
2022/05/28 00:25:07;;;;;;;3.90;1.63;;;;;;;8.77;100.00;100472.34;5014656;28;20482;-81
2022/05/28 00:27:34;;;;;;;5.93;2.03;;;;;;;8.72;100.00;100453.09;5016549;28;20068;-81
2022/05/28 00:30:00;;;;;;;5.47;1.93;;;;;;;8.71;100.00;100459.25;5014968;28;20437;-80
2022/05/28 00:32:27;;;;;;;2.70;1.55;;;;;;;8.71;100.00;100461.88;5000142;28;20052;-80
2022/05/28 00:34:54;;;;;;;4.10;1.70;;;;;;;8.66;100.00;100454.06;5017941;28;20045;-80
2022/05/28 00:37:20;;;;;;;4.20;1.67;;;;;;;8.57;100.00;100442.78;5018015;23;20061;-82
2022/05/28 00:39:47;;;;;;;5.23;1.93;;;;;;;8.51;100.00;100442.91;5009073;28;20042;-78
2022/05/28 00:42:14;;;;;;;6.17;1.93;;;;;;;8.54;100.00;100441.09;5031406;28;20041;-79
2022/05/28 00:44:40;;;;;;;4.97;1.50;;;;;;;8.50;100.00;100446.44;4998483;28;20124;-82
2022/05/28 00:47:08;;;;;;;6.20;2.00;;;;;;;8.50;100.00;100451.72;5012707;28;20144;-81
2022/05/28 00:49:35;;;;;;;3.40;1.70;;;;;;;8.49;100.00;100436.78;5011075;28;20133;-79
2022/05/28 00:52:04;;;;;;;3.37;1.53;;;;;;;8.48;100.00;100453.47;5007462;28;20037;-80
2022/05/28 00:54:57;;;;;;;5.30;2.83;;;;;;;8.56;100.00;100454.22;5009110;28;20041;-81
2022/05/28 00:57:24;;;;;;;5.60;1.70;;;;;;;8.49;100.00;100442.03;5023536;28;20115;-81
2022/05/28 00:59:54;;;;;;;6.13;1.90;;;;;;;8.44;100.00;100443.00;5009427;28;20045;-81
2022/05/28 01:03:01;;;;;;;5.93;2.07;;;;;;;8.40;100.00;100437.78;5027215;28;20465;-82
2022/05/28 01:05:38;;;;;;;7.03;2.27;;;;;;;8.48;100.00;100424.50;5023835;28;20073;-79
2022/05/28 01:08:11;;;;;;;5.90;2.40;;;;;;;8.45;100.00;100434.19;4993822;28;20054;-80
2022/05/28 01:11:02;;;;;;;6.23;1.90;;;;;;;8.46;100.00;100424.53;5003749;28;20041;-80
2022/05/28 01:13:44;;;;;;;4.03;1.70;;;;;;;8.42;100.00;100418.47;5021993;28;20362;-79
2022/05/28 01:16:14;;;;;;;7.77;2.47;;;;;;;8.40;100.00;100424.63;5020796;28;20045;-81
2022/05/28 01:19:11;;;;;;;6.70;2.57;;;;;;;8.39;100.00;100401.81;5004228;28;20069;-80
2022/05/28 01:22:02;;;;;;;6.20;1.93;;;;;;;8.33;100.00;100401.91;4992897;28;20140;-82
2022/05/28 01:24:51;;;;;;;7.80;2.37;;;;;;;8.29;100.00;100416.88;5019608;28;20037;-83
2022/05/28 01:27:38;;;;;;;7.00;2.70;;;;;;;8.35;100.00;100403.66;5017770;28;20053;-83
2022/05/28 01:30:07;;;;;;;8.07;3.07;;;;;;;8.34;100.00;100404.50;5030381;28;20033;-81
2022/05/28 01:32:35;;;;;;;8.30;2.43;;;;;;;8.35;100.00;100408.03;5011220;28;20045;-81
2022/05/28 01:35:05;;;;;;;3.90;1.87;;;;;;;8.41;100.00;100395.66;5019340;28;20067;-81
2022/05/28 01:37:32;;;;;;;9.53;2.87;;;;;;;8.39;100.00;100392.16;5005074;28;20057;-81
2022/05/28 01:40:01;;;;;;;7.13;2.20;;;;;;;8.37;100.00;100398.34;4994372;28;20038;-83
2022/05/28 01:42:28;;;;;;;6.20;2.03;;;;;;;8.36;100.00;100392.22;5035701;28;20069;-82
2022/05/28 01:44:55;;;;;;;10.43;2.30;;;;;;;8.43;100.00;100385.09;4996068;28;20124;-81
2022/05/28 01:47:23;;;;;;;10.27;3.07;;;;;;;8.43;100.00;100387.75;4985617;28;20128;-80
2022/05/28 01:49:50;;;;;;;6.20;2.47;;;;;;;8.38;100.00;100389.56;4999955;28;20528;-82
2022/05/28 01:52:17;;;;;;;11.07;2.07;;;;;;;8.43;100.00;100385.97;5002235;28;20046;-83
2022/05/28 01:54:46;;;;;;;9.07;3.00;;;;;;;8.45;100.00;100375.41;4983414;28;20048;-81
2022/05/28 01:57:13;;;;;;;7.77;2.30;;;;;;;8.39;100.00;100371.09;5001796;28;20054;-81
2022/05/28 01:59:41;;;;;;;4.73;2.20;;;;;;;8.41;100.00;100377.25;4991305;28;20072;-82
2022/05/28 02:02:10;;;;;;;7.90;2.13;;;;;;;8.40;100.00;100369.34;4984066;28;20042;-80
2022/05/28 02:04:39;;;;;;;10.73;2.83;;;;;;;8.35;100.00;100365.94;4989853;28;20061;-80
2022/05/28 02:07:06;;;;;;;7.53;2.60;;;;;;;8.34;100.00;100357.13;4995172;28;20494;-80
2022/05/28 02:09:48;;;;;;;7.23;2.53;;;;;;;8.31;100.00;100362.44;4973291;28;20060;-80
2022/05/28 02:12:28;;;;;;;9.07;2.40;;;;;;;8.34;100.00;100357.13;5011631;28;20405;-80
2022/05/28 02:14:54;;;;;;;6.33;2.67;;;;;;;8.26;100.00;100361.66;4990612;28;20068;-81
2022/05/28 02:17:29;;;;;;;5.33;2.13;;;;;;;8.26;100.00;100345.88;4998813;28;20095;-80
2022/05/28 02:20:10;;;;;;;6.53;2.27;;;;;;;8.30;100.00;100346.66;4986915;28;20041;-79
2022/05/28 02:22:50;;;;;;;5.47;2.50;;;;;;;8.24;100.00;100337.13;4996422;28;20037;-82
2022/05/28 02:25:42;;;;;;;9.97;2.90;;;;;;;8.27;100.00;100339.69;4993995;28;20057;-81
2022/05/28 02:28:09;;;;;;;5.40;1.90;;;;;;;8.25;100.00;100338.88;4992167;28;20041;-80
2022/05/28 02:30:45;;;;;;;6.77;2.37;;;;;;;8.32;100.00;100340.47;4993250;28;20065;-81
2022/05/28 02:33:12;;;;;;;8.20;2.77;;;;;;;8.33;100.00;100336.97;4997482;28;20184;-80
2022/05/28 02:35:39;;;;;;;10.87;2.10;;;;;;;8.31;100.00;100330.84;4997264;28;20034;-80
2022/05/28 02:38:05;;;;;;;8.03;2.40;;;;;;;8.35;100.00;100332.59;5037204;28;20037;-81
2022/05/28 02:40:32;;;;;;;8.00;3.07;;;;;;;8.35;100.00;100337.84;5000613;28;20038;-81
2022/05/28 02:43:01;;;;;;;9.40;2.73;;;;;;;8.35;100.00;100336.97;5005140;28;20045;-80
2022/05/28 02:45:28;;;;;;;5.13;2.23;;;;;;;8.36;100.00;100338.72;4997088;28;20037;-79
2022/05/28 02:47:56;;;;;;;6.13;2.00;;;;;;;8.26;100.00;100343.22;5000598;28;20457;-80
2022/05/28 02:50:26;;;;;;;7.63;2.03;;;;;;;8.28;100.00;100340.56;5013579;28;20047;-80
2022/05/28 02:52:53;;;;;;;7.73;2.50;;;;;;;8.33;100.00;100338.75;5020331;28;20049;-80
2022/05/28 02:55:20;;;;;;;8.73;3.00;;;;;;;8.34;100.00;100335.22;5023739;28;20049;-81
2022/05/28 02:57:46;;;;;;;7.10;2.27;;;;;;;8.33;100.00;100334.34;4984043;28;20050;-80
2022/05/28 03:00:14;;;;;;;8.53;3.10;;;;;;;8.30;100.00;100329.09;4997842;28;20049;-80
2022/05/28 03:02:42;;;;;;;5.60;2.30;;;;;;;8.25;100.00;100324.84;5007419;28;20419;-81
2022/05/28 03:05:11;;;;;;;7.63;2.70;;;;;;;8.24;100.00;100316.06;4980917;28;20037;-81
2022/05/28 03:07:37;;;;;;;7.37;2.70;;;;;;;8.31;100.00;100319.44;5024372;28;20048;-81
2022/05/28 03:10:04;;;;;;;6.97;2.20;;;;;;;8.33;100.00;100309.78;4993926;28;20044;-80
2022/05/28 03:12:31;;;;;;;6.73;2.37;;;;;;;8.31;100.00;100316.81;5015774;28;20034;-81
2022/05/28 03:14:58;;;;;;;10.53;2.57;;;;;;;8.29;100.00;100313.34;5031707;28;20506;-81
2022/05/28 03:17:24;;;;;;;6.73;2.23;;;;;;;8.27;100.00;100307.25;5015125;28;20037;-80
2022/05/28 03:19:51;;;;;;;5.63;2.20;;;;;;;8.23;100.00;100308.19;5007572;28;20049;-80
2022/05/28 03:22:18;;;;;;;4.50;2.00;;;;;;;8.13;100.00;100302.19;4990445;28;20046;-80
2022/05/28 03:24:45;;;;;;;3.67;1.80;;;;;;;8.15;100.00;100305.66;5015618;28;20037;-81
2022/05/28 03:27:12;;;;;;;6.10;2.47;;;;;;;8.07;100.00;100311.09;5015655;28;20045;-80
2022/05/28 03:29:38;;;;;;;5.23;1.67;;;;;;;8.02;100.00;100314.66;5012088;28;20490;-81
2022/05/28 03:32:05;;;;;;;3.93;1.87;;;;;;;7.97;100.00;100303.34;5011702;28;20372;-81
2022/05/28 03:34:32;;;;;;;4.43;1.27;;;;;;;7.90;100.00;100305.19;5012436;28;20053;-81
2022/05/28 03:36:59;;;;;;;4.00;2.03;;;;;;;7.95;100.00;100313.03;5011118;28;20046;-79
2022/05/28 03:39:25;;;;;;;3.53;1.50;;;;;;;8.03;100.00;100319.91;4997880;28;20613;-80
2022/05/28 03:41:52;;;;;;;4.23;1.40;;;;;;;8.02;100.00;100318.16;5022550;28;20494;-80
2022/05/28 03:44:18;;;;;;;4.60;1.30;;;;;;;7.95;100.00;100320.91;5011318;28;20053;-80
2022/05/28 03:46:45;;;;;;;3.33;1.50;;;;;;;7.99;100.00;100319.97;5008678;28;20046;-82
2022/05/28 03:49:17;;;;;;;4.97;3.00;;;;;;;8.01;100.00;100316.44;5013418;28;20513;-79
2022/05/28 03:51:44;;;;;;;3.27;1.60;;;;;;;8.00;100.00;100311.19;4998150;28;20037;-80
2022/05/28 03:54:10;;;;;;;3.77;1.80;;;;;;;8.03;100.00;100311.13;5035275;28;20107;-79
2022/05/28 03:56:39;;;;;;;2.87;1.63;;;;;;;8.07;100.00;100312.81;5022336;28;20037;-80
2022/05/28 03:59:07;;;;;;;3.33;1.43;;;;;;;8.07;100.00;100308.47;5020130;28;20046;-80
2022/05/28 04:01:34;;;;;;;5.10;1.57;;;;;;;8.10;100.00;100304.91;5014812;28;20036;-80
2022/05/28 04:04:01;;;;;;;3.70;1.30;;;;;;;8.15;100.00;100308.31;5011915;28;20041;-80
2022/05/28 04:06:28;;;;;;;4.97;1.60;;;;;;;8.18;100.00;100313.53;4998739;28;20045;-80
2022/05/28 04:08:54;;;;;;;4.57;2.30;;;;;;;8.22;100.00;100309.94;5029233;28;20049;-79
2022/05/28 04:11:21;;;;;;;2.80;1.53;;;;;;;8.28;100.00;100315.13;5013776;28;20045;-81
2022/05/28 04:13:48;;;;;;;10.97;3.27;;;;;;;8.27;100.00;100307.25;5012925;28;20091;-80
2022/05/28 04:16:15;;;;;;;6.10;2.00;;;;;;;8.30;100.00;100305.44;5014345;28;20045;-79
2022/05/28 04:18:43;;;;;;;4.60;1.90;;;;;;;8.33;100.00;100313.28;5001506;28;20128;-80
2022/05/28 04:21:10;;;;;;;3.73;2.00;;;;;;;8.28;100.00;100301.97;4996903;28;20033;-80
2022/05/28 04:23:36;;;;;;;4.70;1.90;;;;;;;8.40;100.00;100309.66;4993175;28;20116;-79
2022/05/28 04:26:03;;;;;;;5.03;1.97;;;;;;;8.49;100.00;100307.78;5042935;28;20037;-79
2022/05/28 04:28:30;;;;;;;3.00;1.43;;;;;;;8.57;100.00;100308.50;4998638;28;20041;-83
2022/05/28 04:30:56;;;;;;;4.63;2.10;;;;;;;8.68;100.00;100311.84;4999397;28;20042;-83
2022/05/28 04:33:23;;;;;;;5.97;1.73;;;;;;;8.72;100.00;100305.59;4998490;28;20558;-79
2022/05/28 04:35:50;;;;;;;8.10;2.00;;;;;;;8.64;100.00;100302.22;5000559;28;20410;-82
2022/05/28 04:38:17;;;;;;;5.88;1.95;;;;;;;8.67;100.00;100304.84;5029549;28;20044;-81
2022/05/28 04:40:43;;;;;;;2.50;1.60;;;;;;;8.67;100.00;100310.09;4996447;28;20096;-80
2022/05/28 04:43:10;;;;;;;6.47;1.83;;;;;;;8.71;100.00;100304.72;5052312;28;20052;-81
2022/05/28 04:45:37;;;;;;;5.10;1.55;;;;;;;8.72;100.00;100302.97;5033842;28;20037;-82
2022/05/28 04:48:04;;;;;;;6.63;1.87;;;;;;;8.81;100.00;100307.19;5032792;28;20052;-80
2022/05/28 04:50:31;;;;;;;8.00;2.15;;;;;;;8.82;100.00;100309.78;5032714;28;20091;-81
2022/05/28 04:52:58;;;;;;;3.50;1.63;;;;;;;8.76;100.00;100312.56;5025166;28;20053;-81
2022/05/28 04:55:24;;;;;;;2.83;1.53;;;;;;;8.64;100.00;100312.75;5002422;28;20034;-80
2022/05/28 04:57:54;;;;;;;4.00;1.63;;;;;;;8.68;100.00;100310.06;5027947;28;20033;-82
2022/05/28 05:00:22;;;;;;;5.70;1.80;;;;;;;8.75;100.00;100324.00;5013662;28;20060;-79
2022/05/28 05:02:49;;;;;;;6.25;1.90;;;;;;;8.84;100.00;100322.94;4991931;28;20037;-81
2022/05/28 05:05:16;;;;;;;5.82;2.38;;;;;;;8.88;100.00;100328.13;4996969;28;20060;-82
2022/05/28 05:07:43;;;;;;;4.83;1.67;;;;;;;8.88;99.65;100325.50;5006510;28;20049;-81
2022/05/28 05:10:10;;;;;;;4.40;1.65;;;;;;;8.99;100.00;100320.00;5046363;28;20040;-82
2022/05/28 05:12:37;;;;;;;5.00;2.07;;;;;;;9.02;99.86;100331.38;5002616;28;20479;-81
2022/05/28 05:15:10;;;;;;;5.57;2.20;;;;;;;8.99;99.43;100326.13;4986126;28;20053;-81
2022/05/28 05:17:37;;;;;;;5.05;1.30;;;;;;;8.95;99.71;100321.84;4999378;28;20047;-82
2022/05/28 05:20:05;;;;;;;2.47;1.48;;;;;;;9.03;100.00;100329.59;5000328;28;20045;-82
2022/05/28 05:22:31;;;;;;;4.95;1.75;;;;;;;9.00;97.35;100330.53;5000899;28;20517;-81
2022/05/28 05:24:58;;;;;;;3.90;1.67;;;;;;;9.05;100.00;100333.06;5015059;28;20045;-81
2022/05/28 05:27:25;;;;;;;2.57;1.70;;;;;;;9.00;100.00;100341.09;5018566;28;20049;-79
2022/05/28 05:29:55;;;;;;;3.78;1.60;;;;;;;8.94;96.90;100342.97;5016254;28;20033;-81
2022/05/28 05:32:22;;;;;;;3.53;1.60;;;;;;;8.91;97.03;100343.88;4998460;28;20503;-81
2022/05/28 05:34:50;;;;;;;5.15;2.22;;;;;;;9.01;100.00;100340.19;5029295;28;20042;-79
2022/05/28 05:37:17;;;;;;;2.95;1.10;;;;;;;9.07;99.08;100344.44;5000936;28;20110;-81
2022/05/28 05:39:43;;;;;;;4.88;2.15;;;;;;;9.01;96.46;100349.84;4999290;28;20461;-81
2022/05/28 05:42:10;;;;;;;4.57;1.40;;;;;;;9.01;98.83;100355.13;5000905;28;20051;-80
2022/05/28 05:44:38;;;;;;;2.42;1.50;;;;;;;9.02;98.12;100356.84;4994931;28;20038;-80
2022/05/28 05:47:06;;;;;;;4.93;1.60;;;;;;;8.93;94.71;100360.53;5006500;28;20030;-80
2022/05/28 05:49:33;;;;;;;4.28;3.13;;;;;;;8.93;96.23;100351.75;4997452;28;20042;-80
2022/05/28 05:51:59;;;;;;;3.88;1.85;;;;;;;9.03;97.33;100345.41;5014049;28;20526;-81
2022/05/28 05:54:26;;;;;;;2.78;1.60;;;;;;;9.12;97.11;100345.22;5014769;28;20041;-80
2022/05/28 05:56:53;;;;;;;7.60;1.98;;;;;;;9.23;96.82;100339.75;5014426;28;20063;-80
2022/05/28 05:59:20;;;;;;;3.35;1.67;;;;;;;9.52;94.20;100349.69;4997118;28;20483;-80
2022/05/28 06:01:47;;;;;;;5.63;1.60;;;;;;;9.64;93.96;100340.66;5004575;28;20549;-81
2022/05/28 06:04:14;;;;;;;7.55;1.73;;;;;;;9.69;92.39;100334.38;4993532;28;20056;-79
2022/05/28 06:06:40;;;;;;;3.95;2.15;;;;;;;9.85;92.96;100338.41;5012715;28;20041;-80
2022/05/28 06:09:07;;;;;;;3.50;1.40;;;;;;;10.11;88.82;100340.44;4981941;28;20049;-80
2022/05/28 06:11:34;;;;;;;3.35;1.77;;;;;;;10.32;89.25;100340.84;5005993;28;20491;-80
2022/05/28 06:14:01;;;;;;;5.05;1.77;;;;;;;10.47;89.20;100337.84;5016540;28;20041;-80
2022/05/28 06:16:27;;;;;;;3.80;1.65;;;;;;;10.47;89.14;100335.19;5002294;28;20049;-80
2022/05/28 06:18:54;;;;;;;4.28;2.10;;;;;;;10.48;86.26;100330.78;4999231;28;20110;-81
2022/05/28 06:21:21;;;;;;;6.28;1.60;;;;;;;10.33;86.17;100342.59;5016325;28;20057;-81
2022/05/28 06:23:47;;;;;;;8.95;1.85;;;;;;;10.42;85.34;100337.97;4991886;28;20072;-80
2022/05/28 06:26:14;;;;;;;3.72;2.00;;;;;;;10.53;84.46;100337.69;4999668;28;20042;-81
2022/05/28 06:28:42;;;;;;;4.93;1.92;;;;;;;10.88;85.12;100334.13;5004530;28;20042;-81
2022/05/28 06:31:11;;;;;;;8.00;2.25;;;;;;;11.15;82.98;100328.97;5017331;28;20775;-81
2022/05/28 06:33:38;;;;;;;5.55;1.83;;;;;;;11.58;80.46;100318.03;4996445;28;20116;-81
2022/05/28 06:36:06;;;;;;;4.05;1.48;;;;;;;11.46;78.39;100319.25;5012959;28;20045;-82
2022/05/28 06:38:33;;;;;;;6.00;2.03;;;;;;;11.36;79.87;100315.16;5015027;28;20092;-80
2022/05/28 06:41:00;;;;;;;5.25;1.52;;;;;;;11.32;78.38;100333.78;5072346;23;20038;-79
2022/05/28 06:43:27;;;;;;;4.57;1.90;;;;;;;11.33;77.37;100317.88;5014156;28;20034;-79
2022/05/28 06:45:54;;;;;;;4.32;1.88;;;;;;;11.33;78.54;100317.00;4987762;28;20497;-79
2022/05/28 06:48:21;;;;;;;11.20;2.47;;;;;;;11.14;79.08;100314.91;5006895;28;20041;-79
2022/05/28 06:51:04;;;;;;;3.70;1.40;;;;;;;11.04;79.06;100321.38;5011109;28;20100;-78
2022/05/28 06:53:40;;;;;;;5.18;1.88;;;;;;;10.99;79.22;100324.13;4995307;28;20049;-79
2022/05/28 06:56:08;;;;;;;4.68;2.35;;;;;;;10.89;80.88;100329.69;5010404;28;20565;-78
2022/05/28 06:58:35;;;;;;;3.38;1.58;;;;;;;10.94;81.72;100333.09;5031481;28;20105;-79
2022/05/28 07:01:03;;;;;;;4.63;2.13;;;;;;;10.89;80.95;100325.28;5012812;28;20049;-79
2022/05/28 07:03:31;;;;;;;3.35;1.60;;;;;;;10.93;80.39;100323.41;5011705;28;20037;-78
2022/05/28 07:05:58;;;;;;;4.13;1.73;;;;;;;10.93;80.79;100319.03;5012885;28;20038;-80
2022/05/28 07:08:25;;;;;;;4.38;2.25;;;;;;;10.92;81.35;100319.03;5018948;28;20095;-78
2022/05/28 07:10:55;;;;;;;3.30;1.50;;;;;;;10.83;82.23;100325.44;5007255;28;20053;-78
2022/05/28 07:13:23;;;;;;;3.22;2.20;;;;;;;10.75;81.90;100321.28;4980650;28;20041;-78
2022/05/28 07:15:49;;;;;;;4.72;1.30;;;;;;;10.65;82.13;100326.78;4993306;28;20042;-79
2022/05/28 07:18:17;;;;;;;4.05;2.08;;;;;;;10.57;83.40;100338.47;4984224;28;20055;-78
2022/05/28 07:20:44;;;;;;;3.65;1.38;;;;;;;10.61;83.91;100325.16;4989383;28;20055;-78
2022/05/28 07:23:17;;;;;;;7.10;2.35;;;;;;;10.76;83.98;100329.16;5009359;28;20092;-79
2022/05/28 07:25:44;;;;;;;7.20;1.63;;;;;;;10.84;83.29;100324.53;5016395;28;20068;-80
2022/05/28 07:28:28;;;;;;;2.92;1.20;;;;;;;10.93;82.10;100316.38;5008853;28;20051;-79
2022/05/28 07:30:58;;;;;;;4.07;1.70;;;;;;;11.16;82.41;100328.06;5015781;28;20414;-80
2022/05/28 07:33:26;;;;;;;4.32;2.13;;;;;;;11.44;80.66;100312.31;5009951;28;20039;-79
2022/05/28 07:35:54;;;;;;;5.07;1.73;;;;;;;11.47;77.08;100314.84;4999712;28;20067;-79
2022/05/28 07:38:22;;;;;;;5.57;2.15;;;;;;;11.82;80.45;100319.09;5001662;28;20069;-79
2022/05/28 07:40:50;;;;;;;9.02;2.13;;;;;;;12.06;79.16;100325.41;5015430;28;20042;-79
2022/05/28 07:43:18;;;;;;;4.10;1.40;;;;;;;12.11;78.21;100318.19;5001658;28;20088;-78
2022/05/28 07:45:45;;;;;;;19.85;3.60;;;;;;;12.24;78.20;100319.50;4999749;28;20045;-80
2022/05/28 07:48:14;;;;;;;2.47;1.30;;;;;;;12.41;75.68;100321.59;4987507;28;20052;-79
2022/05/28 07:50:41;;;;;;;3.38;2.13;;;;;;;12.71;75.70;100318.84;5001156;28;20046;-80
2022/05/28 07:53:08;;;;;;;4.68;1.88;;;;;;;12.74;74.13;100324.88;4998438;28;20037;-80
2022/05/28 07:55:35;;;;;;;4.32;1.60;;;;;;;12.86;75.61;100324.47;5016515;28;20050;-80
2022/05/28 07:58:14;;;;;;;5.65;2.20;;;;;;;13.10;72.89;100320.06;5006482;28;20498;-80
2022/05/28 08:00:46;;;;;;;5.60;1.60;;;;;;;13.16;72.44;100327.81;5014462;28;20100;-79
2022/05/28 08:03:14;;;;;;;4.97;2.40;;;;;;;13.01;70.92;100308.91;5017859;28;20034;-80
2022/05/28 08:05:44;;;;;;;10.40;2.67;;;;;;;13.72;71.50;100302.75;4983716;28;20045;-79
2022/05/28 08:08:11;;;;;;;14.73;3.13;;;;;;;13.41;67.06;100321.63;4983455;28;20136;-80
2022/05/28 08:10:38;;;;;;;5.95;1.75;;;;;;;13.28;71.28;100334.47;5005580;28;20415;-80
2022/05/28 08:13:09;;;;;;;6.68;1.88;;;;;;;13.15;69.71;100328.72;5029084;28;20041;-79
2022/05/28 08:15:38;;;;;;;4.18;1.75;;;;;;;12.96;71.06;100323.22;4995875;28;20060;-78
2022/05/28 08:18:05;;;;;;;4.70;2.38;;;;;;;12.69;70.77;100324.16;4964493;28;20132;-78
2022/05/28 08:23:19;;;;;;;4.18;1.80;;;;;;;12.57;73.61;100325.47;5002723;28;20499;-79
2022/05/28 08:25:47;;;;;;;3.13;1.45;;;;;;;12.55;72.97;100329.97;5015463;28;20545;-79
2022/05/28 08:28:17;;;;;;;5.80;2.00;;;;;;;12.61;74.25;100324.47;5016375;28;20050;-79
2022/05/28 08:30:43;;;;;;;4.72;1.90;;;;;;;12.57;72.87;100335.19;4998299;28;20409;-79
2022/05/28 08:33:13;;;;;;;4.95;1.75;;;;;;;12.31;73.72;100336.06;5031258;28;20490;-79
2022/05/28 08:35:41;;;;;;;7.57;1.95;;;;;;;12.18;74.46;100346.19;4995586;28;20050;-80
2022/05/28 08:38:15;;;;;;;3.60;1.80;;;;;;;11.92;74.32;100354.94;4970468;28;20069;-79
2022/05/28 08:40:48;;;;;;;5.55;1.90;;;;;;;11.84;74.54;100352.53;5026771;28;20042;-79
2022/05/28 08:43:17;;;;;;;5.93;2.13;;;;;;;11.67;75.04;100345.97;4997055;28;20124;-80
2022/05/28 08:45:46;;;;;;;3.65;1.98;;;;;;;11.65;74.25;100353.97;4989354;28;20041;-79
2022/05/28 08:48:17;;;;;;;6.25;2.15;;;;;;;11.59;74.88;100359.44;5016076;28;20047;-79
2022/05/28 08:50:54;;;;;;;5.38;2.20;;;;;;;11.79;76.19;100366.81;5015421;28;20052;-78
2022/05/28 08:53:24;;;;;;;5.85;2.35;;;;;;;11.94;77.77;100365.47;5006299;28;20033;-79
2022/05/28 08:55:53;;;;;;;5.18;2.50;;;;;;;12.00;78.08;100363.53;5006493;28;20190;-80
2022/05/28 08:58:24;;;;;;;5.43;2.17;;;;;;;11.84;81.84;100379.00;4996465;28;20034;-79
2022/05/28 09:01:08;;;;;;;4.30;1.70;;;;;;;11.80;81.23;100372.06;4970369;28;20577;-79
2022/05/28 09:03:44;;;;;;;4.40;2.00;;;;;;;11.62;83.98;100377.88;4984514;28;20049;-79
2022/05/28 09:06:16;;;;;;;5.28;2.28;;;;;;;11.46;80.96;100395.97;4998963;28;20080;-79
2022/05/28 09:08:46;;;;;;;4.35;2.30;;;;;;;11.57;82.90;100372.72;4998575;28;20055;-79
2022/05/28 09:11:48;;;;;;;4.70;2.10;;;;;;;11.63;82.28;100384.03;4998219;28;20057;-79
2022/05/28 09:14:26;;;;;;;12.05;2.65;;;;;;;11.71;84.23;100379.41;5014873;28;20048;-79
2022/05/28 09:16:56;;;;;;;6.75;1.88;;;;;;;11.80;82.18;100380.03;5031530;28;20095;-79
2022/05/28 09:19:30;;;;;;;6.40;2.72;;;;;;;12.04;85.49;100377.56;5016943;28;20038;-80
2022/05/28 09:21:56;;;;;;;8.02;2.25;;;;;;;12.12;84.68;100375.53;4984302;28;20069;-78
2022/05/28 09:24:26;;;;;;;7.43;2.45;;;;;;;12.18;80.82;100375.31;5009728;28;20045;-79
2022/05/28 09:27:06;;;;;;;4.95;2.03;;;;;;;12.11;81.58;100382.59;4997552;28;20487;-79
2022/05/28 09:29:41;;;;;;;4.65;2.10;;;;;;;12.01;82.33;100381.13;4987238;28;20046;-79
2022/05/28 09:32:41;;;;;;;5.95;2.65;;;;;;;11.90;82.52;100377.09;5027300;28;20033;-79
2022/05/28 09:35:27;;;;;;;4.80;2.42;;;;;;;12.09;85.61;100381.75;5016698;28;20049;-80
2022/05/28 09:38:02;;;;;;;4.10;2.30;;;;;;;12.25;82.85;100373.34;4995419;28;20052;-79
2022/05/28 09:40:38;;;;;;;5.03;2.13;;;;;;;12.35;82.09;100373.00;4999066;28;20499;-79
2022/05/28 09:43:17;;;;;;;4.00;2.15;;;;;;;12.43;79.82;100377.19;5007065;28;20044;-79
2022/05/28 09:45:50;;;;;;;5.80;2.38;;;;;;;12.43;77.63;100371.88;4993426;28;20469;-80
2022/05/28 09:48:22;;;;;;;6.87;2.77;;;;;;;12.42;77.48;100378.97;5017807;28;20095;-79
2022/05/28 09:50:50;;;;;;;5.25;2.83;;;;;;;12.34;76.05;100370.41;5017319;28;20088;-79
2022/05/28 09:56:38;;;;;;;5.93;2.58;;;;;;;12.13;77.76;100385.19;5004819;28;20053;-79
2022/05/28 09:59:21;;;;;;;6.45;1.90;;;;;;;12.06;76.60;100389.81;5017317;28;20049;-81
2022/05/28 10:01:54;;;;;;;4.43;1.95;;;;;;;12.24;74.02;100387.50;5018800;28;20049;-79
2022/05/28 10:04:30;;;;;;;6.80;2.35;;;;;;;12.30;74.29;100385.53;5016553;28;20042;-80
2022/05/28 10:07:03;;;;;;;6.15;2.03;;;;;;;12.43;73.77;100393.94;4988866;28;20052;-79
2022/05/28 10:09:32;;;;;;;5.57;2.15;;;;;;;12.51;73.89;100385.75;5018820;28;20564;-80
2022/05/28 10:12:21;;;;;;;2.95;1.80;;;;;;;12.63;70.66;100385.34;4998872;28;20093;-80
2022/05/28 10:15:17;;;;;;;6.10;2.50;;;;;;;12.69;70.74;100390.44;4985489;28;20049;-79
2022/05/28 10:17:56;;;;;;;7.35;2.20;;;;;;;12.50;69.45;100391.97;5004032;28;20055;-79
2022/05/28 10:20:23;;;;;;;4.53;2.28;;;;;;;12.57;72.32;100391.72;4981316;28;20450;-79
2022/05/28 10:22:52;;;;;;;4.00;2.17;;;;;;;12.49;72.14;100396.41;5012117;28;20665;-80
2022/05/28 10:25:31;;;;;;;5.88;2.20;;;;;;;12.46;73.23;100414.19;4997608;28;20037;-79
2022/05/28 10:27:58;;;;;;;5.80;2.00;;;;;;;12.55;71.33;100408.59;4999177;28;20108;-80
2022/05/28 10:30:37;;;;;;;4.45;1.90;;;;;;;12.61;70.10;100398.66;5000946;28;20045;-80
2022/05/28 10:33:15;;;;;;;6.78;1.92;;;;;;;12.55;68.65;100395.34;5029183;28;21593;-80
2022/05/28 10:35:42;;;;;;;5.78;2.05;;;;;;;12.60;68.15;100398.69;5024420;28;20107;-79
2022/05/28 10:38:11;;;;;;;6.80;2.15;;;;;;;12.77;68.61;100412.25;4995002;28;20042;-78
2022/05/28 10:40:55;;;;;;;4.38;1.60;;;;;;;12.94;67.19;100401.94;4995333;28;20038;-78
2022/05/28 10:43:29;;;;;;;7.38;2.00;;;;;;;13.14;65.23;100403.06;5011580;28;20490;-79
2022/05/28 10:45:59;;;;;;;;;;;;;;;13.31;66.39;100407.78;4995922;28;20041;-80
2022/05/28 10:49:04;;;;;;;6.25;1.75;;;;;;;13.42;65.62;100403.81;5026346;28;20371;-79
2022/05/28 10:51:49;;;;;;;8.30;2.15;;;;;;;13.57;64.56;100406.84;5026041;28;20051;-80
2022/05/28 10:54:52;;;;;;;7.53;2.67;;;;;;;13.76;65.13;100397.28;5035536;28;20033;-80
2022/05/28 10:57:19;;;;;;;5.45;2.08;;;;;;;13.88;65.12;100393.31;4982264;28;20633;-80
2022/05/28 11:00:04;;;;;;;4.10;1.60;;;;;;;13.94;62.01;100393.03;4991457;28;20045;-79
2022/05/28 11:02:57;;;;;;;7.25;2.47;;;;;;;14.00;62.51;100396.34;5022586;28;20034;-78
2022/05/28 11:06:03;;;;;;;4.45;2.35;;;;;;;13.94;61.87;100401.00;4994812;28;20066;-79
2022/05/28 11:08:46;;;;;;;6.70;1.88;;;;;;;14.15;61.61;100396.66;5005253;28;20038;-79
2022/05/28 11:11:47;;;;;;;3.85;1.88;;;;;;;14.31;60.09;100389.81;5000768;28;20677;-79
2022/05/28 11:14:30;;;;;;;3.58;1.90;;;;;;;14.12;59.59;100399.44;5001290;28;20026;-79
2022/05/28 11:17:15;;;;;;;8.48;2.00;;;;;;;14.27;58.94;100406.81;5011458;28;20108;-78
2022/05/28 11:20:13;;;;;;;9.43;2.60;;;;;;;14.55;59.84;100395.97;5010707;28;20076;-78
2022/05/28 11:22:55;;;;;;;6.88;2.42;;;;;;;14.90;55.08;100399.81;5010591;28;20077;-80
2022/05/28 11:25:28;;;;;;;4.70;2.22;;;;;;;15.51;54.22;100393.63;4991535;28;20181;-79
2022/05/28 11:28:04;;;;;;;3.90;1.50;;;;;;;16.03;52.47;100395.63;4982610;28;20046;-79
2022/05/28 11:30:38;;;;;;;4.90;2.10;;;;;;;15.89;51.66;100386.53;4993932;28;20076;-79
2022/05/28 11:33:20;;;;;;;5.78;2.17;;;;;;;15.81;54.06;100394.03;5012414;28;20040;-79
2022/05/28 11:36:11;;;;;;;7.78;2.20;;;;;;;16.08;55.63;100392.75;5029634;28;20053;-78
2022/05/28 11:38:50;;;;;;;7.32;2.65;;;;;;;16.63;53.72;100397.19;5007454;28;20514;-80
2022/05/28 11:41:41;;;;;;;3.75;1.70;;;;;;;16.62;50.14;100391.00;4998524;28;20714;-81
2022/05/28 11:44:23;;;;;;;6.68;1.67;;;;;;;16.25;49.51;100386.63;5005840;28;20070;-79
2022/05/28 11:46:54;;;;;;;6.57;1.90;;;;;;;15.76;50.56;100392.44;5000375;28;20527;-80
2022/05/28 11:52:44;;;;;;;51.72;9.30;;;;;;;15.17;51.54;100395.97;4948823;28;20599;-81
2022/05/28 11:55:18;;;;;;;7.07;2.65;;;;;;;14.97;53.54;100395.97;4985222;28;20049;-81